Time,TemperatureF,DewpointF,PressureIn,WindDirection,WindDirectionDegrees,WindSpeedMPH,WindSpeedGustMPH,Humidity,HourlyPrecipIn,Conditions,Clouds,dailyrainin,SoftwareType,DateUTC
2013-03-10 00:00:00,41.1,26.2,30.28,NE,45,0.0,1.0,55,0.00,,,0.00,LWC V2.11 B50,2013-03-10 08:00:00,
2013-03-10 00:05:00,43.5,23.6,30.29,NE,45,0.0,0.0,45,0.00,,,0.00,WeatherCatV1.15B25,2013-03-10 08:05:00,
2013-03-10 00:10:00,43.5,23.6,30.29,NE,45,0.0,0.0,45,0.00,,,0.00,LWC V2.11 B50,2013-03-10 08:10:00,
2013-03-10 00:15:00,43.5,23.6,30.29,NE,45,0.0,0.0,45,0.00,,,0.00,WeatherCatV1.15B25,2013-03-10 08:15:00,
2013-03-10 00:20:00,43.5,23.6,30.29,NE,45,0.0,0.0,45,0.00,,,0.00,LWC V2.11 B50,2013-03-10 08:20:00,
2013-03-10 00:25:00,43.5,23.6,30.29,NE,45,0.0,0.0,45,0.00,,,0.00,WeatherCatV1.15B25,2013-03-10 08:25:00,
2013-03-10 00:30:00,43.5,23.6,30.29,NE,45,0.0,0.0,45,0.00,,,0.00,LWC V2.11 B50,2013-03-10 08:30:00,
2013-03-10 00:35:00,43.5,23.6,30.29,NE,45,0.0,0.0,45,0.00,,,0.00,WeatherCatV1.15B25,2013-03-10 08:35:00,
2013-03-10 00:40:00,43.5,23.6,30.29,NE,45,0.0,0.0,45,0.00,,,0.00,LWC V2.11 B50,2013-03-10 08:40:00,
2013-03-10 00:45:00,43.5,23.6,30.29,NE,45,0.0,0.0,45,0.00,,,0.00,WeatherCatV1.15B25,2013-03-10 08:45:00,
2013-03-10 00:50:00,43.5,23.6,30.29,NE,45,0.0,0.0,45,0.00,,,0.00,LWC V2.11 B50,2013-03-10 08:50:00,
2013-03-10 00:55:00,43.5,23.6,30.29,NE,45,0.0,0.0,45,0.00,,,0.00,WeatherCatV1.15B25,2013-03-10 08:55:00,
2013-03-10 01:00:00,43.5,23.6,30.29,NE,45,0.0,0.0,45,0.00,,,0.00,LWC V2.11 B50,2013-03-10 09:00:00,
2013-03-10 01:05:00,43.5,23.6,30.29,NE,45,0.0,0.0,45,0.00,,,0.00,WeatherCatV1.15B25,2013-03-10 09:05:00,
2013-03-10 01:10:00,43.5,23.6,30.29,NE,45,0.0,0.0,45,0.00,,,0.00,LWC V2.11 B50,2013-03-10 09:10:00,
2013-03-10 01:15:00,43.5,23.6,30.29,NE,45,0.0,0.0,45,0.00,,,0.00,WeatherCatV1.15B25,2013-03-10 09:15:00,
2013-03-10 01:20:00,43.5,23.6,30.29,NE,45,0.0,0.0,45,0.00,,,0.00,LWC V2.11 B50,2013-03-10 09:20:00,
2013-03-10 01:25:00,43.5,23.6,30.29,NE,45,0.0,0.0,45,0.00,,,0.00,WeatherCatV1.15B25,2013-03-10 09:25:00,
2013-03-10 01:30:00,43.5,23.6,30.29,NE,45,0.0,0.0,45,0.00,,,0.00,LWC V2.11 B50,2013-03-10 09:30:00,
2013-03-10 01:35:00,43.5,23.6,30.29,NE,45,0.0,0.0,45,0.00,,,0.00,WeatherCatV1.15B25,2013-03-10 09:35:00,
2013-03-10 01:40:00,43.5,23.6,30.29,NE,45,0.0,0.0,45,0.00,,,0.00,LWC V2.11 B50,2013-03-10 09:40:00,
2013-03-10 01:45:00,43.5,23.6,30.29,NE,45,0.0,0.0,45,0.00,,,0.00,WeatherCatV1.15B25,2013-03-10 09:45:00,
2013-03-10 01:50:00,43.5,23.6,30.29,NE,45,0.0,0.0,45,0.00,,,0.00,LWC V2.11 B50,2013-03-10 09:50:00,
2013-03-10 01:55:00,43.5,23.6,30.29,NE,45,0.0,0.0,45,0.00,,,0.00,WeatherCatV1.15B25,2013-03-10 09:55:00,
2013-03-10 03:00:00,43.6,23.1,30.28,NE,45,0.0,0.0,44,0.00,,,0.00,LWC V2.11 B50,2013-03-10 10:00:00,
2013-03-10 03:05:00,43.6,23.1,30.28,NE,45,0.0,0.0,44,0.00,,,0.00,WeatherCatV1.15B25,2013-03-10 10:05:00,
2013-03-10 03:10:00,43.6,23.1,30.28,NE,45,0.0,0.0,44,0.00,,,0.00,LWC V2.11 B50,2013-03-10 10:10:00,
2013-03-10 03:15:00,43.6,23.1,30.28,NE,45,0.0,0.0,44,0.00,,,0.00,WeatherCatV1.15B25,2013-03-10 10:15:00,
2013-03-10 03:20:00,43.6,23.1,30.28,NE,45,0.0,0.0,44,0.00,,,0.00,LWC V2.11 B50,2013-03-10 10:20:00,
2013-03-10 03:25:00,43.6,23.1,30.28,NE,45,0.0,0.0,44,0.00,,,0.00,WeatherCatV1.15B25,2013-03-10 10:25:00,
2013-03-10 03:30:00,43.6,23.1,30.28,NE,45,0.0,0.0,44,0.00,,,0.00,LWC V2.11 B50,2013-03-10 10:30:00,
2013-03-10 03:35:00,43.6,23.1,30.28,NE,45,0.0,0.0,44,0.00,,,0.00,WeatherCatV1.15B25,2013-03-10 10:35:00,
2013-03-10 03:40:00,43.6,23.1,30.28,NE,45,0.0,0.0,44,0.00,,,0.00,LWC V2.11 B50,2013-03-10 10:40:00,
2013-03-10 03:45:00,43.6,23.1,30.28,NE,45,0.0,0.0,44,0.00,,,0.00,WeatherCatV1.15B25,2013-03-10 10:45:00,
2013-03-10 03:50:00,43.6,23.1,30.28,NE,45,0.0,0.0,44,0.00,,,0.00,LWC V2.11 B50,2013-03-10 10:50:00,
2013-03-10 03:55:00,43.6,23.1,30.28,NE,45,0.0,0.0,44,0.00,,,0.00,WeatherCatV1.15B25,2013-03-10 10:55:00,
2013-03-10 04:00:00,43.6,23.1,30.28,NE,45,0.0,0.0,44,0.00,,,0.00,LWC V2.11 B50,2013-03-10 11:00:00,
2013-03-10 04:05:00,41.3,23.6,30.27,NE,45,0.0,3.0,49,0.00,,,0.00,WeatherCatV1.15B25,2013-03-10 11:05:00,
2013-03-10 04:10:00,41.3,23.6,30.27,NE,45,0.0,3.0,49,0.00,,,0.00,LWC V2.11 B50,2013-03-10 11:10:00,
2013-03-10 04:15:00,41.3,23.6,30.27,NE,45,0.0,3.0,49,0.00,,,0.00,WeatherCatV1.15B25,2013-03-10 11:15:00,
2013-03-10 04:20:00,41.3,23.6,30.27,NE,45,0.0,3.0,49,0.00,,,0.00,LWC V2.11 B50,2013-03-10 11:20:00,
2013-03-10 04:25:00,41.3,23.6,30.27,NE,45,0.0,3.0,49,0.00,,,0.00,WeatherCatV1.15B25,2013-03-10 11:25:00,
2013-03-10 04:30:00,41.3,23.6,30.27,NE,45,0.0,3.0,49,0.00,,,0.00,LWC V2.11 B50,2013-03-10 11:30:00,
2013-03-10 04:35:00,41.3,23.6,30.27,NE,45,0.0,3.0,49,0.00,,,0.00,WeatherCatV1.15B25,2013-03-10 11:35:00,
2013-03-10 04:40:00,41.3,23.6,30.27,NE,45,0.0,3.0,49,0.00,,,0.00,LWC V2.11 B50,2013-03-10 11:40:00,
2013-03-10 04:45:00,41.3,23.6,30.27,NE,45,0.0,3.0,49,0.00,,,0.00,WeatherCatV1.15B25,2013-03-10 11:45:00,
2013-03-10 04:50:00,41.3,23.6,30.27,NE,45,0.0,3.0,49,0.00,,,0.00,LWC V2.11 B50,2013-03-10 11:50:00,
2013-03-10 04:55:00,41.3,23.6,30.27,NE,45,0.0,3.0,49,0.00,,,0.00,WeatherCatV1.15B25,2013-03-10 11:55:00,
2013-03-10 05:00:00,41.3,23.6,30.27,NE,45,0.0,3.0,49,0.00,,,0.00,LWC V2.11 B50,2013-03-10 12:00:00,
2013-03-10 05:05:00,43.6,22.6,30.27,NE,45,0.0,1.0,43,0.00,,,0.00,WeatherCatV1.15B25,2013-03-10 12:05:00,
2013-03-10 05:10:00,43.6,22.6,30.27,NE,45,0.0,1.0,43,0.00,,,0.00,LWC V2.11 B50,2013-03-10 12:10:00,
2013-03-10 05:15:00,43.6,22.6,30.27,NE,45,0.0,1.0,43,0.00,,,0.00,WeatherCatV1.15B25,2013-03-10 12:15:00,
2013-03-10 05:20:00,43.6,22.6,30.27,NE,45,0.0,1.0,43,0.00,,,0.00,LWC V2.11 B50,2013-03-10 12:20:00,
2013-03-10 05:25:00,43.6,22.6,30.27,NE,45,0.0,1.0,43,0.00,,,0.00,WeatherCatV1.15B25,2013-03-10 12:25:00,
2013-03-10 05:30:00,43.6,22.6,30.27,NE,45,0.0,1.0,43,0.00,,,0.00,LWC V2.11 B50,2013-03-10 12:30:00,
2013-03-10 05:35:00,43.6,22.6,30.27,NE,45,0.0,1.0,43,0.00,,,0.00,WeatherCatV1.15B25,2013-03-10 12:35:00,
2013-03-10 05:40:00,43.6,22.6,30.27,NE,45,0.0,1.0,43,0.00,,,0.00,LWC V2.11 B50,2013-03-10 12:40:00,
2013-03-10 05:45:00,43.6,22.6,30.27,NE,45,0.0,1.0,43,0.00,,,0.00,WeatherCatV1.15B25,2013-03-10 12:45:00,
2013-03-10 05:50:00,43.6,22.6,30.27,NE,45,0.0,1.0,43,0.00,,,0.00,LWC V2.11 B50,2013-03-10 12:50:00,
2013-03-10 05:55:00,43.6,22.6,30.27,NE,45,0.0,1.0,43,0.00,,,0.00,WeatherCatV1.15B25,2013-03-10 12:55:00,
2013-03-10 06:00:00,43.6,22.6,30.27,NE,45,0.0,1.0,43,0.00,,,0.00,LWC V2.11 B50,2013-03-10 13:00:00,
2013-03-10 06:05:00,42.2,20.8,30.29,NNW,338,0.0,2.0,42,0.00,,,0.00,WeatherCatV1.15B25,2013-03-10 13:05:00,
2013-03-10 06:10:00,42.2,20.8,30.29,NNW,338,0.0,2.0,42,0.00,,,0.00,LWC V2.11 B50,2013-03-10 13:10:00,
2013-03-10 06:15:00,42.2,20.8,30.29,NNW,338,0.0,2.0,42,0.00,,,0.00,WeatherCatV1.15B25,2013-03-10 13:15:00,
2013-03-10 06:20:00,42.2,20.8,30.29,NNW,338,0.0,2.0,42,0.00,,,0.00,LWC V2.11 B50,2013-03-10 13:20:00,
2013-03-10 06:25:00,42.2,20.8,30.29,NNW,338,0.0,2.0,42,0.00,,,0.00,WeatherCatV1.15B25,2013-03-10 13:25:00,
2013-03-10 06:30:00,42.2,20.8,30.29,NNW,338,0.0,2.0,42,0.00,,,0.00,LWC V2.11 B50,2013-03-10 13:30:00,
2013-03-10 06:35:00,42.2,20.8,30.29,NNW,338,0.0,2.0,42,0.00,,,0.00,WeatherCatV1.15B25,2013-03-10 13:35:00,
2013-03-10 06:40:00,42.2,20.8,30.29,NNW,338,0.0,2.0,42,0.00,,,0.00,LWC V2.11 B50,2013-03-10 13:40:00,
2013-03-10 06:45:00,42.2,20.8,30.29,NNW,338,0.0,2.0,42,0.00,,,0.00,WeatherCatV1.15B25,2013-03-10 13:45:00,
2013-03-10 06:50:00,42.2,20.8,30.29,NNW,338,0.0,2.0,42,0.00,,,0.00,LWC V2.11 B50,2013-03-10 13:50:00,
2013-03-10 06:55:00,42.2,20.8,30.29,NNW,338,0.0,2.0,42,0.00,,,0.00,WeatherCatV1.15B25,2013-03-10 13:55:00,
2013-03-10 07:00:00,38.1,26.6,30.31,NNE,22,0.0,1.0,63,0.00,,,0.00,LWC V2.11 B50,2013-03-10 14:00:00,
2013-03-10 07:05:00,38.1,26.6,30.31,NNE,22,0.0,1.0,63,0.00,,,0.00,WeatherCatV1.15B25,2013-03-10 14:05:00,
2013-03-10 07:10:00,38.1,26.6,30.31,NNE,22,0.0,1.0,63,0.00,,,0.00,LWC V2.11 B50,2013-03-10 14:10:00,
2013-03-10 07:15:00,38.1,26.6,30.31,NNE,22,0.0,1.0,63,0.00,,,0.00,WeatherCatV1.15B25,2013-03-10 14:15:00,
2013-03-10 07:20:00,38.1,26.6,30.31,NNE,22,0.0,1.0,63,0.00,,,0.00,LWC V2.11 B50,2013-03-10 14:20:00,
2013-03-10 07:25:00,38.1,26.6,30.31,NNE,22,0.0,1.0,63,0.00,,,0.00,WeatherCatV1.15B25,2013-03-10 14:25:00,
2013-03-10 07:30:00,38.1,26.6,30.31,NNE,22,0.0,1.0,63,0.00,,,0.00,LWC V2.11 B50,2013-03-10 14:30:00,
2013-03-10 07:35:00,38.1,26.6,30.31,NNE,22,0.0,1.0,63,0.00,,,0.00,WeatherCatV1.15B25,2013-03-10 14:35:00,
2013-03-10 07:40:00,38.1,26.6,30.31,NNE,22,0.0,1.0,63,0.00,,,0.00,LWC V2.11 B50,2013-03-10 14:40:00,
2013-03-10 07:45:00,38.1,26.6,30.31,NNE,22,0.0,1.0,63,0.00,,,0.00,WeatherCatV1.15B25,2013-03-10 14:45:00,
2013-03-10 07:50:00,38.1,26.6,30.31,NNE,22,0.0,1.0,63,0.00,,,0.00,LWC V2.11 B50,2013-03-10 14:50:00,
2013-03-10 07:55:00,38.1,26.6,30.31,NNE,22,0.0,1.0,63,0.00,,,0.00,WeatherCatV1.15B25,2013-03-10 14:55:00,
2013-03-10 08:00:00,36.7,27.2,30.32,NNE,22,0.0,0.0,68,0.00,,,0.00,LWC V2.11 B50,2013-03-10 15:00:00,
2013-03-10 08:05:00,36.7,27.2,30.32,NNE,22,0.0,0.0,68,0.00,,,0.00,WeatherCatV1.15B25,2013-03-10 15:05:00,
2013-03-10 08:10:00,36.7,27.2,30.32,NNE,22,0.0,0.0,68,0.00,,,0.00,WeatherCatV1.15B25,2013-03-10 15:10:00,
2013-03-10 08:15:00,36.7,27.2,30.32,NNE,22,0.0,0.0,68,0.00,,,0.00,WeatherCatV1.15B25,2013-03-10 15:15:00,
2013-03-10 08:18:00,37.3,30.1,30.31,ENE,67,0.0,0.0,75,0.00,,,0.00,LWC V2.11 B50,2013-03-10 15:18:00,
2013-03-10 08:20:00,36.7,27.2,30.32,NNE,22,0.0,0.0,68,0.00,,,0.00,WeatherCatV1.15B25,2013-03-10 15:20:00,
2013-03-10 08:23:00,37.7,30.8,30.32,ENE,67,0.0,0.0,76,0.00,,,0.00,LWC V2.11 B50,2013-03-10 15:23:00,
2013-03-10 08:25:00,36.7,27.2,30.32,NNE,22,0.0,0.0,68,0.00,,,0.00,WeatherCatV1.15B25,2013-03-10 15:25:00,
2013-03-10 08:28:00,37.3,29.8,30.32,ENE,67,0.0,0.0,74,0.00,,,0.00,LWC V2.11 B50,2013-03-10 15:28:00,
2013-03-10 08:30:00,36.7,27.2,30.32,NNE,22,0.0,0.0,68,0.00,,,0.00,WeatherCatV1.15B25,2013-03-10 15:30:00,
2013-03-10 08:33:00,37.4,30.5,30.32,ENE,68,0.0,0.0,76,0.00,,,0.00,LWC V2.11 B50,2013-03-10 15:33:00,
2013-03-10 08:35:00,36.7,27.2,30.32,NNE,22,0.0,0.0,68,0.00,,,0.00,WeatherCatV1.15B25,2013-03-10 15:35:00,
2013-03-10 08:38:00,38.9,31.3,30.31,ENE,70,0.0,0.0,74,0.00,,,0.00,LWC V2.11 B50,2013-03-10 15:38:00,
2013-03-10 08:40:00,36.7,27.2,30.32,NNE,22,0.0,0.0,68,0.00,,,0.00,WeatherCatV1.15B25,2013-03-10 15:40:00,
2013-03-10 08:43:00,39.4,31.5,30.31,ENE,70,0.0,0.0,73,0.00,,,0.00,LWC V2.11 B50,2013-03-10 15:43:00,
2013-03-10 08:45:00,36.7,27.2,30.32,NNE,22,0.0,0.0,68,0.00,,,0.00,WeatherCatV1.15B25,2013-03-10 15:45:00,
2013-03-10 08:48:00,38.9,31.0,30.31,ENE,70,0.0,0.0,73,0.00,,,0.00,LWC V2.11 B50,2013-03-10 15:48:00,
2013-03-10 08:50:00,36.7,27.2,30.32,NNE,22,0.0,0.0,68,0.00,,,0.00,WeatherCatV1.15B25,2013-03-10 15:50:00,
2013-03-10 08:53:00,39.2,30.9,30.31,ENE,69,0.0,0.0,72,0.00,,,0.00,LWC V2.11 B50,2013-03-10 15:53:00,
2013-03-10 08:55:00,36.7,27.2,30.32,NNE,22,0.0,0.0,68,0.00,,,0.00,WeatherCatV1.15B25,2013-03-10 15:55:00,
2013-03-10 08:58:00,39.5,29.8,30.32,ENE,70,0.0,0.0,68,0.00,,,0.00,LWC V2.11 B50,2013-03-10 15:58:00,
2013-03-10 09:00:00,39.6,29.9,30.32,NNE,22,0.0,0.0,68,0.00,,,0.00,WeatherCatV1.15B25,2013-03-10 16:00:00,
2013-03-10 09:03:00,40.2,28.6,30.31,ENE,69,0.0,0.0,63,0.00,,,0.00,LWC V2.11 B50,2013-03-10 16:03:00,
2013-03-10 09:05:00,39.6,29.9,30.32,NNE,22,0.0,0.0,68,0.00,,,0.00,WeatherCatV1.15B25,2013-03-10 16:05:00,
2013-03-10 09:08:00,41.2,28.8,30.31,ENE,69,0.0,0.0,61,0.00,,,0.00,LWC V2.11 B50,2013-03-10 16:08:00,
2013-03-10 09:10:00,39.6,29.9,30.32,NNE,22,0.0,0.0,68,0.00,,,0.00,WeatherCatV1.15B25,2013-03-10 16:10:00,
2013-03-10 09:13:00,41.6,28.8,30.31,ENE,70,0.0,0.0,60,0.00,,,0.00,LWC V2.11 B50,2013-03-10 16:13:00,
2013-03-10 09:15:00,39.6,29.9,30.32,NNE,22,0.0,0.0,68,0.00,,,0.00,WeatherCatV1.15B25,2013-03-10 16:15:00,
2013-03-10 09:18:00,41.9,28.2,30.31,ENE,70,0.0,0.0,58,0.00,,,0.00,LWC V2.11 B50,2013-03-10 16:18:00,
2013-03-10 09:20:00,39.6,29.9,30.32,NNE,22,0.0,0.0,68,0.00,,,0.00,WeatherCatV1.15B25,2013-03-10 16:20:00,
2013-03-10 09:23:00,42.5,28.4,30.31,ENE,69,0.0,0.0,57,0.00,,,0.00,LWC V2.11 B50,2013-03-10 16:23:00,
2013-03-10 09:25:00,39.6,29.9,30.32,NNE,22,0.0,0.0,68,0.00,,,0.00,WeatherCatV1.15B25,2013-03-10 16:25:00,
2013-03-10 09:28:00,42.8,28.2,30.31,ENE,69,0.0,0.0,56,0.00,,,0.00,LWC V2.11 B50,2013-03-10 16:28:00,
2013-03-10 09:30:00,39.6,29.9,30.32,NNE,22,0.0,0.0,68,0.00,,,0.00,WeatherCatV1.15B25,2013-03-10 16:30:00,
2013-03-10 09:33:00,43.2,28.6,30.32,ENE,70,0.0,0.0,56,0.00,,,0.00,LWC V2.11 B50,2013-03-10 16:33:00,
2013-03-10 09:35:00,39.6,29.9,30.32,NNE,22,0.0,0.0,68,0.00,,,0.00,WeatherCatV1.15B25,2013-03-10 16:35:00,
2013-03-10 09:38:00,43.7,28.6,30.32,ENE,70,0.0,0.0,55,0.00,,,0.00,LWC V2.11 B50,2013-03-10 16:38:00,
2013-03-10 09:40:00,39.6,29.9,30.32,NNE,22,0.0,0.0,68,0.00,,,0.00,WeatherCatV1.15B25,2013-03-10 16:40:00,
2013-03-10 09:43:00,44.6,28.5,30.32,ENE,70,0.0,0.0,53,0.00,,,0.00,LWC V2.11 B50,2013-03-10 16:43:00,
2013-03-10 09:45:00,39.6,29.9,30.32,NNE,22,0.0,0.0,68,0.00,,,0.00,WeatherCatV1.15B25,2013-03-10 16:45:00,
2013-03-10 09:48:00,45.1,29.0,30.32,West,264,0.0,0.0,53,0.00,,,0.00,LWC V2.11 B50,2013-03-10 16:48:00,
2013-03-10 09:50:00,39.6,29.9,30.32,NNE,22,0.0,0.0,68,0.00,,,0.00,WeatherCatV1.15B25,2013-03-10 16:50:00,
2013-03-10 09:53:00,45.6,27.6,30.32,West,267,0.0,0.0,49,0.00,,,0.00,LWC V2.11 B50,2013-03-10 16:53:00,
2013-03-10 09:55:00,39.6,29.9,30.32,NNE,22,0.0,0.0,68,0.00,,,0.00,WeatherCatV1.15B25,2013-03-10 16:55:00,
2013-03-10 09:58:00,46.5,31.2,30.32,West,267,0.0,2.0,55,0.00,,,0.00,LWC V2.11 B50,2013-03-10 16:58:00,
2013-03-10 10:00:00,46.7,31.4,30.32,West,270,0.0,2.0,55,0.00,,,0.00,WeatherCatV1.15B25,2013-03-10 17:00:00,
2013-03-10 10:03:00,47.3,32.0,30.32,West,281,2.0,2.0,55,0.00,,,0.00,LWC V2.11 B50,2013-03-10 17:03:00,
2013-03-10 10:05:00,46.7,31.4,30.32,West,270,0.0,2.0,55,0.00,,,0.00,WeatherCatV1.15B25,2013-03-10 17:05:00,
2013-03-10 10:08:00,47.9,32.1,30.32,WSW,256,0.0,2.0,54,0.00,,,0.00,LWC V2.11 B50,2013-03-10 17:08:00,
2013-03-10 10:10:00,46.7,31.4,30.32,West,270,0.0,2.0,55,0.00,,,0.00,WeatherCatV1.15B25,2013-03-10 17:10:00,
2013-03-10 10:13:00,48.4,32.5,30.32,WSW,246,0.0,0.0,54,0.00,,,0.00,LWC V2.11 B50,2013-03-10 17:13:00,
2013-03-10 10:15:00,46.7,31.4,30.32,West,270,0.0,2.0,55,0.00,,,0.00,WeatherCatV1.15B25,2013-03-10 17:15:00,
2013-03-10 10:18:00,48.7,32.8,30.31,West,281,0.0,1.0,54,0.00,,,0.00,LWC V2.11 B50,2013-03-10 17:18:00,
2013-03-10 10:20:00,46.7,31.4,30.32,West,270,0.0,2.0,55,0.00,,,0.00,WeatherCatV1.15B25,2013-03-10 17:20:00,
2013-03-10 10:23:00,48.9,33.5,30.32,West,267,0.0,1.0,55,0.00,,,0.00,LWC V2.11 B50,2013-03-10 17:23:00,
2013-03-10 10:25:00,46.7,31.4,30.32,West,270,0.0,2.0,55,0.00,,,0.00,WeatherCatV1.15B25,2013-03-10 17:25:00,
2013-03-10 10:28:00,49.1,33.2,30.31,WNW,283,2.0,2.0,54,0.00,,,0.00,LWC V2.11 B50,2013-03-10 17:28:00,
2013-03-10 10:30:00,46.7,31.4,30.32,West,270,0.0,2.0,55,0.00,,,0.00,WeatherCatV1.15B25,2013-03-10 17:30:00,
2013-03-10 10:33:00,49.5,33.6,30.31,West,281,0.0,1.0,54,0.00,,,0.00,LWC V2.11 B50,2013-03-10 17:33:00,
2013-03-10 10:35:00,46.7,31.4,30.32,West,270,0.0,2.0,55,0.00,,,0.00,WeatherCatV1.15B25,2013-03-10 17:35:00,
2013-03-10 10:38:00,49.8,33.4,30.31,West,259,0.0,1.0,53,0.00,,,0.00,LWC V2.11 B50,2013-03-10 17:38:00,
2013-03-10 10:40:00,46.7,31.4,30.32,West,270,0.0,2.0,55,0.00,,,0.00,WeatherCatV1.15B25,2013-03-10 17:40:00,
2013-03-10 10:43:00,50.2,32.8,30.31,West,269,0.0,0.0,51,0.00,,,0.00,LWC V2.11 B50,2013-03-10 17:43:00,
2013-03-10 10:45:00,46.7,31.4,30.32,West,270,0.0,2.0,55,0.00,,,0.00,WeatherCatV1.15B25,2013-03-10 17:45:00,
2013-03-10 10:48:00,50.5,31.5,30.31,WNW,284,0.0,1.0,48,0.00,,,0.00,LWC V2.11 B50,2013-03-10 17:48:00,
2013-03-10 10:50:00,46.7,31.4,30.32,West,270,0.0,2.0,55,0.00,,,0.00,WeatherCatV1.15B25,2013-03-10 17:50:00,
2013-03-10 10:53:00,50.9,32.4,30.31,NW,315,0.0,0.0,49,0.00,,,0.00,LWC V2.11 B50,2013-03-10 17:53:00,
2013-03-10 10:55:00,46.7,31.4,30.32,West,270,0.0,2.0,55,0.00,,,0.00,WeatherCatV1.15B25,2013-03-10 17:55:00,
2013-03-10 10:58:00,51.3,32.8,30.31,WSW,254,0.0,1.0,49,0.00,,,0.00,LWC V2.11 B50,2013-03-10 17:58:00,
2013-03-10 11:00:00,51.6,32.6,30.31,West,270,0.0,2.0,48,0.00,,,0.00,WeatherCatV1.15B25,2013-03-10 18:00:00,
2013-03-10 11:03:00,51.8,32.7,30.31,West,262,4.0,4.0,48,0.00,,,0.00,LWC V2.11 B50,2013-03-10 18:03:00,
2013-03-10 11:05:00,51.6,32.6,30.31,West,270,0.0,2.0,48,0.00,,,0.00,WeatherCatV1.15B25,2013-03-10 18:05:00,
2013-03-10 11:08:00,51.8,33.3,30.31,West,274,3.0,3.0,49,0.00,,,0.00,LWC V2.11 B50,2013-03-10 18:08:00,
2013-03-10 11:10:00,51.6,32.6,30.31,West,270,0.0,2.0,48,0.00,,,0.00,WeatherCatV1.15B25,2013-03-10 18:10:00,
2013-03-10 11:13:00,52.0,33.9,30.31,WNW,282,0.0,0.0,50,0.00,,,0.00,LWC V2.11 B50,2013-03-10 18:13:00,
2013-03-10 11:15:00,51.6,32.6,30.31,West,270,0.0,2.0,48,0.00,,,0.00,WeatherCatV1.15B25,2013-03-10 18:15:00,
2013-03-10 11:18:00,52.1,34.5,30.31,West,266,1.0,3.0,51,0.00,,,0.00,LWC V2.11 B50,2013-03-10 18:18:00,
2013-03-10 11:20:00,51.6,32.6,30.31,West,270,0.0,2.0,48,0.00,,,0.00,WeatherCatV1.15B25,2013-03-10 18:20:00,
2013-03-10 11:23:00,52.5,35.9,30.31,WSW,245,0.0,1.0,53,0.00,,,0.00,LWC V2.11 B50,2013-03-10 18:23:00,
2013-03-10 11:25:00,51.6,32.6,30.31,West,270,0.0,2.0,48,0.00,,,0.00,WeatherCatV1.15B25,2013-03-10 18:25:00,
2013-03-10 11:28:00,52.8,35.2,30.31,WNW,283,0.0,0.0,51,0.00,,,0.00,LWC V2.11 B50,2013-03-10 18:28:00,
2013-03-10 11:30:00,51.6,32.6,30.31,West,270,0.0,2.0,48,0.00,,,0.00,WeatherCatV1.15B25,2013-03-10 18:30:00,
2013-03-10 11:33:00,52.9,35.3,30.31,West,278,0.0,0.0,51,0.00,,,0.00,LWC V2.11 B50,2013-03-10 18:33:00,
2013-03-10 11:35:00,51.6,32.6,30.31,West,270,0.0,2.0,48,0.00,,,0.00,WeatherCatV1.15B25,2013-03-10 18:35:00,
2013-03-10 11:38:00,53.2,32.4,30.31,West,266,3.0,3.0,45,0.00,,,0.00,LWC V2.11 B50,2013-03-10 18:38:00,
2013-03-10 11:40:00,51.6,32.6,30.31,West,270,0.0,2.0,48,0.00,,,0.00,WeatherCatV1.15B25,2013-03-10 18:40:00,
2013-03-10 11:43:00,53.4,33.1,30.30,West,273,0.0,1.0,46,0.00,,,0.00,LWC V2.11 B50,2013-03-10 18:43:00,
2013-03-10 11:45:00,51.6,32.6,30.31,West,270,0.0,2.0,48,0.00,,,0.00,WeatherCatV1.15B25,2013-03-10 18:45:00,
2013-03-10 11:48:00,53.9,33.1,30.30,WNW,282,1.0,2.0,45,0.00,,,0.00,LWC V2.11 B50,2013-03-10 18:48:00,
2013-03-10 11:50:00,51.6,32.6,30.31,West,270,0.0,2.0,48,0.00,,,0.00,WeatherCatV1.15B25,2013-03-10 18:50:00,
2013-03-10 11:53:00,54.6,35.3,30.30,West,277,0.0,1.0,48,0.00,,,0.00,LWC V2.11 B50,2013-03-10 18:53:00,
2013-03-10 11:55:00,51.6,32.6,30.31,West,270,0.0,2.0,48,0.00,,,0.00,WeatherCatV1.15B25,2013-03-10 18:55:00,
2013-03-10 11:58:00,55.0,36.2,30.30,WNW,284,1.0,2.0,49,0.00,,,0.00,LWC V2.11 B50,2013-03-10 18:58:00,
2013-03-10 12:00:00,55.0,35.7,30.30,West,270,1.0,4.0,48,0.00,,,0.00,WeatherCatV1.15B25,2013-03-10 19:00:00,
2013-03-10 12:03:00,54.9,35.1,30.30,West,280,1.0,2.0,47,0.00,,,0.00,LWC V2.11 B50,2013-03-10 19:03:00,
2013-03-10 12:05:00,55.0,35.7,30.30,West,270,1.0,4.0,48,0.00,,,0.00,WeatherCatV1.15B25,2013-03-10 19:05:00,
2013-03-10 12:08:00,54.7,34.3,30.30,West,281,0.0,3.0,46,0.00,,,0.00,LWC V2.11 B50,2013-03-10 19:08:00,
2013-03-10 12:10:00,55.0,35.7,30.30,West,270,1.0,4.0,48,0.00,,,0.00,WeatherCatV1.15B25,2013-03-10 19:10:00,
2013-03-10 12:13:00,54.6,34.2,30.30,WSW,249,0.0,0.0,46,0.00,,,0.00,LWC V2.11 B50,2013-03-10 19:13:00,
2013-03-10 12:15:00,55.0,35.7,30.30,West,270,1.0,4.0,48,0.00,,,0.00,WeatherCatV1.15B25,2013-03-10 19:15:00,
2013-03-10 12:18:00,54.8,35.0,30.29,WSW,245,0.0,1.0,47,0.00,,,0.00,LWC V2.11 B50,2013-03-10 19:18:00,
2013-03-10 12:20:00,55.0,35.7,30.30,West,270,1.0,4.0,48,0.00,,,0.00,WeatherCatV1.15B25,2013-03-10 19:20:00,
2013-03-10 12:23:00,55.0,34.6,30.29,WNW,284,1.0,1.0,46,0.00,,,0.00,LWC V2.11 B50,2013-03-10 19:23:00,
2013-03-10 12:25:00,55.0,35.7,30.30,West,270,1.0,4.0,48,0.00,,,0.00,WeatherCatV1.15B25,2013-03-10 19:25:00,
2013-03-10 12:28:00,55.4,34.4,30.29,NW,322,0.0,0.0,45,0.00,,,0.00,LWC V2.11 B50,2013-03-10 19:28:00,
2013-03-10 12:30:00,55.0,35.7,30.30,West,270,1.0,4.0,48,0.00,,,0.00,WeatherCatV1.15B25,2013-03-10 19:30:00,
2013-03-10 12:33:00,56.1,35.6,30.28,NNW,342,0.0,0.0,46,0.00,,,0.00,LWC V2.11 B50,2013-03-10 19:33:00,
2013-03-10 12:35:00,55.0,35.7,30.30,West,270,1.0,4.0,48,0.00,,,0.00,WeatherCatV1.15B25,2013-03-10 19:35:00,
2013-03-10 12:38:00,56.6,35.5,30.28,West,266,0.0,3.0,45,0.00,,,0.00,LWC V2.11 B50,2013-03-10 19:38:00,
2013-03-10 12:40:00,55.0,35.7,30.30,West,270,1.0,4.0,48,0.00,,,0.00,WeatherCatV1.15B25,2013-03-10 19:40:00,
2013-03-10 12:43:00,56.7,36.2,30.28,WSW,248,3.0,3.0,46,0.00,,,0.00,LWC V2.11 B50,2013-03-10 19:43:00,
2013-03-10 12:45:00,55.0,35.7,30.30,West,270,1.0,4.0,48,0.00,,,0.00,WeatherCatV1.15B25,2013-03-10 19:45:00,
2013-03-10 12:48:00,56.9,35.2,30.27,West,280,1.0,1.0,44,0.00,,,0.00,LWC V2.11 B50,2013-03-10 19:48:00,
2013-03-10 12:50:00,55.0,35.7,30.30,West,270,1.0,4.0,48,0.00,,,0.00,WeatherCatV1.15B25,2013-03-10 19:50:00,
2013-03-10 12:53:00,58.0,34.4,30.27,NNW,332,1.0,3.0,41,0.00,,,0.00,LWC V2.11 B50,2013-03-10 19:53:00,
2013-03-10 12:55:00,55.0,35.7,30.30,West,270,1.0,4.0,48,0.00,,,0.00,WeatherCatV1.15B25,2013-03-10 19:55:00,
2013-03-10 12:58:00,58.2,34.0,30.27,WSW,253,0.0,2.0,40,0.00,,,0.00,LWC V2.11 B50,2013-03-10 19:58:00,
2013-03-10 13:00:00,58.3,34.1,30.27,WSW,248,1.0,4.0,40,0.00,,,0.00,WeatherCatV1.15B25,2013-03-10 20:00:00,
2013-03-10 13:03:00,58.7,33.2,30.27,NW,318,1.0,3.0,38,0.00,,,0.00,LWC V2.11 B50,2013-03-10 20:03:00,
2013-03-10 13:05:00,58.3,34.1,30.27,WSW,248,1.0,4.0,40,0.00,,,0.00,WeatherCatV1.15B25,2013-03-10 20:05:00,
2013-03-10 13:08:00,59.0,37.1,30.27,WSW,243,1.0,2.0,44,0.00,,,0.00,LWC V2.11 B50,2013-03-10 20:08:00,
2013-03-10 13:10:00,58.3,34.1,30.27,WSW,248,1.0,4.0,40,0.00,,,0.00,WeatherCatV1.15B25,2013-03-10 20:10:00,
2013-03-10 13:11:00,59.4,36.9,30.26,WSW,238,1.0,2.0,43,0.00,,,0.00,LWC V2.11 B50,2013-03-10 20:11:00,
2013-03-10 13:15:00,58.3,34.1,30.27,WSW,248,1.0,4.0,40,0.00,,,0.00,WeatherCatV1.15B25,2013-03-10 20:15:00,
2013-03-10 13:16:00,59.9,36.1,30.27,West,277,2.0,4.0,41,0.00,,,0.00,LWC V2.11 B50,2013-03-10 20:16:00,
2013-03-10 13:20:00,58.3,34.1,30.27,WSW,248,1.0,4.0,40,0.00,,,0.00,WeatherCatV1.15B25,2013-03-10 20:20:00,
2013-03-10 13:21:00,60.1,39.2,30.27,West,262,3.0,5.0,46,0.00,,,0.00,LWC V2.11 B50,2013-03-10 20:21:00,
2013-03-10 13:25:00,58.3,34.1,30.27,WSW,248,1.0,4.0,40,0.00,,,0.00,WeatherCatV1.15B25,2013-03-10 20:25:00,
2013-03-10 13:26:00,59.6,39.9,30.26,WSW,248,3.0,4.0,48,0.00,,,0.00,LWC V2.11 B50,2013-03-10 20:26:00,
2013-03-10 13:30:00,58.3,34.1,30.27,WSW,248,1.0,4.0,40,0.00,,,0.00,WeatherCatV1.15B25,2013-03-10 20:30:00,
2013-03-10 13:31:00,59.3,39.6,30.26,WSW,240,2.0,4.0,48,0.00,,,0.00,LWC V2.11 B50,2013-03-10 20:31:00,
2013-03-10 13:35:00,58.3,34.1,30.27,WSW,248,1.0,4.0,40,0.00,,,0.00,WeatherCatV1.15B25,2013-03-10 20:35:00,
2013-03-10 13:36:00,59.1,40.0,30.26,West,260,3.0,6.0,49,0.00,,,0.00,LWC V2.11 B50,2013-03-10 20:36:00,
2013-03-10 13:40:00,58.3,34.1,30.27,WSW,248,1.0,4.0,40,0.00,,,0.00,WeatherCatV1.15B25,2013-03-10 20:40:00,
2013-03-10 13:41:00,58.6,39.0,30.26,WSW,245,0.0,3.0,48,0.00,,,0.00,LWC V2.11 B50,2013-03-10 20:41:00,
2013-03-10 13:45:00,58.3,34.1,30.27,WSW,248,1.0,4.0,40,0.00,,,0.00,WeatherCatV1.15B25,2013-03-10 20:45:00,
2013-03-10 13:46:00,59.0,40.9,30.26,WSW,257,3.0,5.0,51,0.00,,,0.00,LWC V2.11 B50,2013-03-10 20:46:00,
2013-03-10 13:50:00,58.3,34.1,30.27,WSW,248,1.0,4.0,40,0.00,,,0.00,WeatherCatV1.15B25,2013-03-10 20:50:00,
2013-03-10 13:51:00,59.7,41.5,30.25,SW,226,2.0,4.0,51,0.00,,,0.00,LWC V2.11 B50,2013-03-10 20:51:00,
2013-03-10 13:55:00,58.3,34.1,30.27,WSW,248,1.0,4.0,40,0.00,,,0.00,WeatherCatV1.15B25,2013-03-10 20:55:00,
2013-03-10 13:56:00,60.0,41.8,30.25,WSW,252,3.0,6.0,51,0.00,,,0.00,LWC V2.11 B50,2013-03-10 20:56:00,
2013-03-10 14:00:00,59.6,42.0,30.25,West,270,2.0,6.0,52,0.00,,,0.00,WeatherCatV1.15B25,2013-03-10 21:00:00,
2013-03-10 14:01:00,59.8,41.6,30.25,WSW,243,3.0,3.0,51,0.00,,,0.00,LWC V2.11 B50,2013-03-10 21:01:00,
2013-03-10 14:05:00,59.6,42.0,30.25,West,270,2.0,6.0,52,0.00,,,0.00,WeatherCatV1.15B25,2013-03-10 21:05:00,
2013-03-10 14:06:00,59.6,41.4,30.25,West,271,0.0,4.0,51,0.00,,,0.00,LWC V2.11 B50,2013-03-10 21:06:00,
2013-03-10 14:10:00,59.6,42.0,30.25,West,270,2.0,6.0,52,0.00,,,0.00,WeatherCatV1.15B25,2013-03-10 21:10:00,
2013-03-10 14:11:00,59.7,42.0,30.25,West,278,1.0,4.0,52,0.00,,,0.00,LWC V2.11 B50,2013-03-10 21:11:00,
2013-03-10 14:15:00,59.6,42.0,30.25,West,270,2.0,6.0,52,0.00,,,0.00,WeatherCatV1.15B25,2013-03-10 21:15:00,
2013-03-10 14:16:00,59.1,42.0,30.25,WSW,248,2.0,2.0,53,0.00,,,0.00,LWC V2.11 B50,2013-03-10 21:16:00,
2013-03-10 14:20:00,59.6,42.0,30.25,West,270,2.0,6.0,52,0.00,,,0.00,WeatherCatV1.15B25,2013-03-10 21:20:00,
2013-03-10 14:21:00,59.5,42.8,30.24,West,266,1.0,4.0,54,0.00,,,0.00,LWC V2.11 B50,2013-03-10 21:21:00,
2013-03-10 14:25:00,59.6,42.0,30.25,West,270,2.0,6.0,52,0.00,,,0.00,WeatherCatV1.15B25,2013-03-10 21:25:00,
2013-03-10 14:26:00,59.9,43.2,30.25,WSW,248,3.0,7.0,54,0.00,,,0.00,LWC V2.11 B50,2013-03-10 21:26:00,
2013-03-10 14:30:00,59.6,42.0,30.25,West,270,2.0,6.0,52,0.00,,,0.00,WeatherCatV1.15B25,2013-03-10 21:30:00,
2013-03-10 14:31:00,59.1,42.9,30.25,WSW,255,4.0,5.0,55,0.00,,,0.00,LWC V2.11 B50,2013-03-10 21:31:00,
2013-03-10 14:35:00,59.6,42.0,30.25,West,270,2.0,6.0,52,0.00,,,0.00,WeatherCatV1.15B25,2013-03-10 21:35:00,
2013-03-10 14:36:00,59.3,43.6,30.25,West,259,3.0,4.0,56,0.00,,,0.00,LWC V2.11 B50,2013-03-10 21:36:00,
2013-03-10 14:40:00,59.6,42.0,30.25,West,270,2.0,6.0,52,0.00,,,0.00,WeatherCatV1.15B25,2013-03-10 21:40:00,
2013-03-10 14:41:00,59.4,43.2,30.25,South,176,3.0,5.0,55,0.00,,,0.00,LWC V2.11 B50,2013-03-10 21:41:00,
2013-03-10 14:45:00,59.6,42.0,30.25,West,270,2.0,6.0,52,0.00,,,0.00,WeatherCatV1.15B25,2013-03-10 21:45:00,
2013-03-10 14:46:00,59.6,43.4,30.25,WSW,252,3.0,4.0,55,0.00,,,0.00,LWC V2.11 B50,2013-03-10 21:46:00,
2013-03-10 14:50:00,59.6,42.0,30.25,West,270,2.0,6.0,52,0.00,,,0.00,WeatherCatV1.15B25,2013-03-10 21:50:00,
2013-03-10 14:51:00,59.7,44.4,30.25,SW,235,1.0,3.0,57,0.00,,,0.00,LWC V2.11 B50,2013-03-10 21:51:00,
2013-03-10 14:55:00,59.6,42.0,30.25,West,270,2.0,6.0,52,0.00,,,0.00,WeatherCatV1.15B25,2013-03-10 21:55:00,
2013-03-10 14:56:00,59.9,44.2,30.25,WSW,239,2.0,3.0,56,0.00,,,0.00,LWC V2.11 B50,2013-03-10 21:56:00,
2013-03-10 15:00:00,59.9,44.2,30.25,West,270,2.0,7.0,56,0.00,,,0.00,WeatherCatV1.15B25,2013-03-10 22:00:00,
2013-03-10 15:01:00,59.8,44.1,30.25,WSW,257,3.0,3.0,56,0.00,,,0.00,LWC V2.11 B50,2013-03-10 22:01:00,
2013-03-10 15:05:00,59.9,44.2,30.25,West,270,2.0,7.0,56,0.00,,,0.00,WeatherCatV1.15B25,2013-03-10 22:05:00,
2013-03-10 15:06:00,59.4,43.7,30.25,SSW,212,1.0,2.0,56,0.00,,,0.00,LWC V2.11 B50,2013-03-10 22:06:00,
2013-03-10 15:10:00,59.9,44.2,30.25,West,270,2.0,7.0,56,0.00,,,0.00,WeatherCatV1.15B25,2013-03-10 22:10:00,
2013-03-10 15:11:00,59.8,44.1,30.25,WSW,245,0.0,3.0,56,0.00,,,0.00,LWC V2.11 B50,2013-03-10 22:11:00,
2013-03-10 15:15:00,59.9,44.2,30.25,West,270,2.0,7.0,56,0.00,,,0.00,WeatherCatV1.15B25,2013-03-10 22:15:00,
2013-03-10 15:16:00,59.0,43.3,30.25,WSW,246,3.0,7.0,56,0.00,,,0.00,LWC V2.11 B50,2013-03-10 22:16:00,
2013-03-10 15:20:00,59.9,44.2,30.25,West,270,2.0,7.0,56,0.00,,,0.00,WeatherCatV1.15B25,2013-03-10 22:20:00,
2013-03-10 15:21:00,58.0,43.3,30.25,WSW,240,2.0,3.0,58,0.00,,,0.00,LWC V2.11 B50,2013-03-10 22:21:00,
2013-03-10 15:25:00,59.9,44.2,30.25,West,270,2.0,7.0,56,0.00,,,0.00,WeatherCatV1.15B25,2013-03-10 22:25:00,
2013-03-10 15:26:00,58.2,43.9,30.25,WSW,255,1.0,2.0,59,0.00,,,0.00,LWC V2.11 B50,2013-03-10 22:26:00,
2013-03-10 15:30:00,59.9,44.2,30.25,West,270,2.0,7.0,56,0.00,,,0.00,WeatherCatV1.15B25,2013-03-10 22:30:00,
2013-03-10 15:31:00,58.1,44.3,30.25,West,271,2.0,3.0,60,0.00,,,0.00,LWC V2.11 B50,2013-03-10 22:31:00,
2013-03-10 15:35:00,59.9,44.2,30.25,West,270,2.0,7.0,56,0.00,,,0.00,WeatherCatV1.15B25,2013-03-10 22:35:00,
2013-03-10 15:36:00,58.5,44.2,30.25,SSW,211,0.0,0.0,59,0.00,,,0.00,LWC V2.11 B50,2013-03-10 22:36:00,
2013-03-10 15:40:00,59.9,44.2,30.25,West,270,2.0,7.0,56,0.00,,,0.00,WeatherCatV1.15B25,2013-03-10 22:40:00,
2013-03-10 15:41:00,58.1,44.3,30.26,SSW,206,0.0,4.0,60,0.00,,,0.00,LWC V2.11 B50,2013-03-10 22:41:00,
2013-03-10 15:45:00,59.9,44.2,30.25,West,270,2.0,7.0,56,0.00,,,0.00,WeatherCatV1.15B25,2013-03-10 22:45:00,
2013-03-10 15:46:00,57.9,44.5,30.26,West,259,0.0,2.0,61,0.00,,,0.00,LWC V2.11 B50,2013-03-10 22:46:00,
2013-03-10 15:50:00,59.9,44.2,30.25,West,270,2.0,7.0,56,0.00,,,0.00,WeatherCatV1.15B25,2013-03-10 22:50:00,
2013-03-10 15:51:00,57.9,44.5,30.26,WSW,246,4.0,4.0,61,0.00,,,0.00,LWC V2.11 B50,2013-03-10 22:51:00,
2013-03-10 15:55:00,59.9,44.2,30.25,West,270,2.0,7.0,56,0.00,,,0.00,WeatherCatV1.15B25,2013-03-10 22:55:00,
2013-03-10 15:56:00,57.3,44.0,30.26,WSW,240,0.0,1.0,61,0.00,,,0.00,LWC V2.11 B50,2013-03-10 22:56:00,
2013-03-10 16:00:00,57.2,43.9,30.26,West,270,1.0,7.0,61,0.00,,,0.00,WeatherCatV1.15B25,2013-03-10 23:00:00,
2013-03-10 16:01:00,57.2,44.3,30.26,SSE,160,0.0,1.0,62,0.00,,,0.00,LWC V2.11 B50,2013-03-10 23:01:00,
2013-03-10 16:05:00,57.2,43.9,30.26,West,270,1.0,7.0,61,0.00,,,0.00,WeatherCatV1.15B25,2013-03-10 23:05:00,
2013-03-10 16:06:00,57.4,44.1,30.26,WSW,246,0.0,4.0,61,0.00,,,0.00,LWC V2.11 B50,2013-03-10 23:06:00,
2013-03-10 16:10:00,57.2,43.9,30.26,West,270,1.0,7.0,61,0.00,,,0.00,WeatherCatV1.15B25,2013-03-10 23:10:00,
2013-03-10 16:11:00,56.9,43.6,30.26,NNW,335,0.0,1.0,61,0.00,,,0.00,LWC V2.11 B50,2013-03-10 23:11:00,
2013-03-10 16:15:00,57.2,43.9,30.26,West,270,1.0,7.0,61,0.00,,,0.00,WeatherCatV1.15B25,2013-03-10 23:15:00,
2013-03-10 16:16:00,57.1,44.2,30.26,West,267,0.0,0.0,62,0.00,,,0.00,LWC V2.11 B50,2013-03-10 23:16:00,
2013-03-10 16:20:00,57.2,43.9,30.26,West,270,1.0,7.0,61,0.00,,,0.00,WeatherCatV1.15B25,2013-03-10 23:20:00,
2013-03-10 16:21:00,57.6,44.2,30.26,SW,229,0.0,0.0,61,0.00,,,0.00,LWC V2.11 B50,2013-03-10 23:21:00,
2013-03-10 16:25:00,57.2,43.9,30.26,West,270,1.0,7.0,61,0.00,,,0.00,WeatherCatV1.15B25,2013-03-10 23:25:00,
2013-03-10 16:26:00,58.0,44.2,30.25,South,191,0.0,1.0,60,0.00,,,0.00,LWC V2.11 B50,2013-03-10 23:26:00,
2013-03-10 16:30:00,57.2,43.9,30.26,West,270,1.0,7.0,61,0.00,,,0.00,WeatherCatV1.15B25,2013-03-10 23:30:00,
2013-03-10 16:31:00,57.8,44.0,30.25,SSW,205,0.0,0.0,60,0.00,,,0.00,LWC V2.11 B50,2013-03-10 23:31:00,
2013-03-10 16:35:00,57.2,43.9,30.26,West,270,1.0,7.0,61,0.00,,,0.00,WeatherCatV1.15B25,2013-03-10 23:35:00,
2013-03-10 16:36:00,58.0,43.8,30.25,South,170,0.0,1.0,59,0.00,,,0.00,LWC V2.11 B50,2013-03-10 23:36:00,
2013-03-10 16:40:00,57.2,43.9,30.26,West,270,1.0,7.0,61,0.00,,,0.00,WeatherCatV1.15B25,2013-03-10 23:40:00,
2013-03-10 16:41:00,58.4,44.6,30.25,WSW,248,0.0,1.0,60,0.00,,,0.00,LWC V2.11 B50,2013-03-10 23:41:00,
2013-03-10 16:45:00,57.2,43.9,30.26,West,270,1.0,7.0,61,0.00,,,0.00,WeatherCatV1.15B25,2013-03-10 23:45:00,
2013-03-10 16:46:00,58.9,43.7,30.25,East,93,0.0,0.0,57,0.00,,,0.00,LWC V2.11 B50,2013-03-10 23:46:00,
2013-03-10 16:50:00,57.2,43.9,30.26,West,270,1.0,7.0,61,0.00,,,0.00,WeatherCatV1.15B25,2013-03-10 23:50:00,
2013-03-10 16:51:00,58.6,43.4,30.25,ESE,117,0.0,0.0,57,0.00,,,0.00,LWC V2.11 B50,2013-03-10 23:51:00,
2013-03-10 16:55:00,57.2,43.9,30.26,West,270,1.0,7.0,61,0.00,,,0.00,WeatherCatV1.15B25,2013-03-10 23:55:00,
2013-03-10 16:56:00,59.1,43.9,30.25,SSE,167,0.0,1.0,57,0.00,,,0.00,LWC V2.11 B50,2013-03-10 23:56:00,
2013-03-10 17:00:00,59.5,43.8,30.25,WSW,248,0.0,4.0,56,0.00,,,0.00,WeatherCatV1.15B25,2013-03-11 00:00:00,
2013-03-10 17:01:00,59.7,43.5,30.24,SSE,159,0.0,0.0,55,0.00,,,0.00,LWC V2.11 B50,2013-03-11 00:01:00,
2013-03-10 17:05:00,59.5,43.8,30.25,WSW,248,0.0,4.0,56,0.00,,,0.00,WeatherCatV1.15B25,2013-03-11 00:05:00,
2013-03-10 17:06:00,60.8,44.0,30.24,SE,144,0.0,1.0,54,0.00,,,0.00,LWC V2.11 B50,2013-03-11 00:06:00,
2013-03-10 17:10:00,59.5,43.8,30.25,WSW,248,0.0,4.0,56,0.00,,,0.00,WeatherCatV1.15B25,2013-03-11 00:10:00,
2013-03-10 17:11:00,60.9,43.2,30.24,SE,133,1.0,4.0,52,0.00,,,0.00,LWC V2.11 B50,2013-03-11 00:11:00,
2013-03-10 17:15:00,59.5,43.8,30.25,WSW,248,0.0,4.0,56,0.00,,,0.00,WeatherCatV1.15B25,2013-03-11 00:15:00,
2013-03-10 17:16:00,60.9,44.1,30.24,WSW,243,0.0,2.0,54,0.00,,,0.00,LWC V2.11 B50,2013-03-11 00:16:00,
2013-03-10 17:20:00,59.5,43.8,30.25,WSW,248,0.0,4.0,56,0.00,,,0.00,WeatherCatV1.15B25,2013-03-11 00:20:00,
2013-03-10 17:21:00,60.5,43.3,30.23,SE,140,0.0,1.0,53,0.00,,,0.00,LWC V2.11 B50,2013-03-11 00:21:00,
2013-03-10 17:25:00,59.5,43.8,30.25,WSW,248,0.0,4.0,56,0.00,,,0.00,WeatherCatV1.15B25,2013-03-11 00:25:00,
2013-03-10 17:26:00,59.8,43.6,30.23,East,92,0.0,0.0,55,0.00,,,0.00,LWC V2.11 B50,2013-03-11 00:26:00,
2013-03-10 17:30:00,59.5,43.8,30.25,WSW,248,0.0,4.0,56,0.00,,,0.00,WeatherCatV1.15B25,2013-03-11 00:30:00,
2013-03-10 17:31:00,59.9,43.2,30.23,SE,127,0.0,0.0,54,0.00,,,0.00,LWC V2.11 B50,2013-03-11 00:31:00,
2013-03-10 17:35:00,59.5,43.8,30.25,WSW,248,0.0,4.0,56,0.00,,,0.00,WeatherCatV1.15B25,2013-03-11 00:35:00,
2013-03-10 17:36:00,60.3,43.1,30.24,SSW,193,1.0,3.0,53,0.00,,,0.00,LWC V2.11 B50,2013-03-11 00:36:00,
2013-03-10 17:40:00,59.5,43.8,30.25,WSW,248,0.0,4.0,56,0.00,,,0.00,WeatherCatV1.15B25,2013-03-11 00:40:00,
2013-03-10 17:41:00,59.9,42.7,30.23,SSW,198,0.0,0.0,53,0.00,,,0.00,LWC V2.11 B50,2013-03-11 00:41:00,
2013-03-10 17:45:00,59.5,43.8,30.25,WSW,248,0.0,4.0,56,0.00,,,0.00,WeatherCatV1.15B25,2013-03-11 00:45:00,
2013-03-10 17:46:00,59.6,42.9,30.24,East,79,0.0,0.0,54,0.00,,,0.00,LWC V2.11 B50,2013-03-11 00:46:00,
2013-03-10 17:50:00,59.5,43.8,30.25,WSW,248,0.0,4.0,56,0.00,,,0.00,WeatherCatV1.15B25,2013-03-11 00:50:00,
2013-03-10 17:51:00,59.3,42.7,30.24,SSW,193,0.0,0.0,54,0.00,,,0.00,LWC V2.11 B50,2013-03-11 00:51:00,
2013-03-10 17:55:00,59.5,43.8,30.25,WSW,248,0.0,4.0,56,0.00,,,0.00,WeatherCatV1.15B25,2013-03-11 00:55:00,
2013-03-10 17:56:00,59.0,42.4,30.24,WSW,250,0.0,1.0,54,0.00,,,0.00,LWC V2.11 B50,2013-03-11 00:56:00,
2013-03-10 18:00:00,58.8,42.7,30.24,SE,135,0.0,4.0,55,0.00,,,0.00,WeatherCatV1.15B25,2013-03-11 01:00:00,
2013-03-10 18:01:00,58.7,42.1,30.24,West,278,0.0,1.0,54,0.00,,,0.00,LWC V2.11 B50,2013-03-11 01:01:00,
2013-03-10 18:05:00,58.8,42.7,30.24,SE,135,0.0,4.0,55,0.00,,,0.00,WeatherCatV1.15B25,2013-03-11 01:05:00,
2013-03-10 18:06:00,58.3,41.7,30.24,West,262,0.0,3.0,54,0.00,,,0.00,LWC V2.11 B50,2013-03-11 01:06:00,
2013-03-10 18:10:00,58.8,42.7,30.24,SE,135,0.0,4.0,55,0.00,,,0.00,WeatherCatV1.15B25,2013-03-11 01:10:00,
2013-03-10 18:11:00,58.3,42.7,30.25,SW,236,1.0,1.0,56,0.00,,,0.00,LWC V2.11 B50,2013-03-11 01:11:00,
2013-03-10 18:15:00,58.8,42.7,30.24,SE,135,0.0,4.0,55,0.00,,,0.00,WeatherCatV1.15B25,2013-03-11 01:15:00,
2013-03-10 18:16:00,58.2,41.6,30.25,West,266,0.0,1.0,54,0.00,,,0.00,LWC V2.11 B50,2013-03-11 01:16:00,
2013-03-10 18:20:00,58.8,42.7,30.24,SE,135,0.0,4.0,55,0.00,,,0.00,WeatherCatV1.15B25,2013-03-11 01:20:00,
2013-03-10 18:21:00,58.0,41.9,30.25,WSW,252,0.0,0.0,55,0.00,,,0.00,LWC V2.11 B50,2013-03-11 01:21:00,
2013-03-10 18:25:00,58.8,42.7,30.24,SE,135,0.0,4.0,55,0.00,,,0.00,WeatherCatV1.15B25,2013-03-11 01:25:00,
2013-03-10 18:26:00,57.7,41.6,30.25,WSW,253,0.0,0.0,55,0.00,,,0.00,LWC V2.11 B50,2013-03-11 01:26:00,
2013-03-10 18:30:00,58.8,42.7,30.24,SE,135,0.0,4.0,55,0.00,,,0.00,WeatherCatV1.15B25,2013-03-11 01:30:00,
2013-03-10 18:31:00,57.5,41.9,30.25,WSW,253,0.0,0.0,56,0.00,,,0.00,LWC V2.11 B50,2013-03-11 01:31:00,
2013-03-10 18:35:00,58.8,42.7,30.24,SE,135,0.0,4.0,55,0.00,,,0.00,WeatherCatV1.15B25,2013-03-11 01:35:00,
2013-03-10 18:36:00,57.4,41.8,30.25,West,274,0.0,1.0,56,0.00,,,0.00,LWC V2.11 B50,2013-03-11 01:36:00,
2013-03-10 18:40:00,58.8,42.7,30.24,SE,135,0.0,4.0,55,0.00,,,0.00,WeatherCatV1.15B25,2013-03-11 01:40:00,
2013-03-10 18:41:00,57.4,41.4,30.25,West,274,0.0,0.0,55,0.00,,,0.00,LWC V2.11 B50,2013-03-11 01:41:00,
2013-03-10 18:45:00,58.8,42.7,30.24,SE,135,0.0,4.0,55,0.00,,,0.00,WeatherCatV1.15B25,2013-03-11 01:45:00,
2013-03-10 18:46:00,57.6,41.6,30.25,West,274,0.0,0.0,55,0.00,,,0.00,LWC V2.11 B50,2013-03-11 01:46:00,
2013-03-10 18:50:00,58.8,42.7,30.24,SE,135,0.0,4.0,55,0.00,,,0.00,WeatherCatV1.15B25,2013-03-11 01:50:00,
2013-03-10 18:51:00,56.6,41.1,30.25,West,274,0.0,0.0,56,0.00,,,0.00,LWC V2.11 B50,2013-03-11 01:51:00,
2013-03-10 18:55:00,58.8,42.7,30.24,SE,135,0.0,4.0,55,0.00,,,0.00,WeatherCatV1.15B25,2013-03-11 01:55:00,
2013-03-10 18:56:00,55.9,42.2,30.25,West,274,0.0,0.0,60,0.00,,,0.00,LWC V2.11 B50,2013-03-11 01:56:00,
2013-03-10 19:00:00,55.3,41.2,30.25,West,270,0.0,3.0,59,0.00,,,0.00,WeatherCatV1.15B25,2013-03-11 02:00:00,
2013-03-10 19:01:00,55.0,41.4,30.25,West,278,0.0,0.0,60,0.00,,,0.00,LWC V2.11 B50,2013-03-11 02:01:00,
2013-03-10 19:05:00,55.3,41.2,30.25,West,270,0.0,3.0,59,0.00,,,0.00,WeatherCatV1.15B25,2013-03-11 02:05:00,
2013-03-10 19:06:00,54.5,41.7,30.25,West,278,0.0,0.0,62,0.00,,,0.00,LWC V2.11 B50,2013-03-11 02:06:00,
2013-03-10 19:10:00,55.3,41.2,30.25,West,270,0.0,3.0,59,0.00,,,0.00,WeatherCatV1.15B25,2013-03-11 02:10:00,
2013-03-10 19:11:00,53.9,42.0,30.25,West,278,0.0,0.0,64,0.00,,,0.00,LWC V2.11 B50,2013-03-11 02:11:00,
2013-03-10 19:15:00,55.3,41.2,30.25,West,270,0.0,3.0,59,0.00,,,0.00,WeatherCatV1.15B25,2013-03-11 02:15:00,
2013-03-10 19:16:00,53.4,41.5,30.25,West,278,0.0,0.0,64,0.00,,,0.00,LWC V2.11 B50,2013-03-11 02:16:00,
2013-03-10 19:20:00,55.3,41.2,30.25,West,270,0.0,3.0,59,0.00,,,0.00,WeatherCatV1.15B25,2013-03-11 02:20:00,
2013-03-10 19:21:00,53.1,41.6,30.25,West,278,0.0,0.0,65,0.00,,,0.00,LWC V2.11 B50,2013-03-11 02:21:00,
2013-03-10 19:25:00,55.3,41.2,30.25,West,270,0.0,3.0,59,0.00,,,0.00,WeatherCatV1.15B25,2013-03-11 02:25:00,
2013-03-10 19:26:00,52.7,41.3,30.25,West,278,0.0,0.0,65,0.00,,,0.00,LWC V2.11 B50,2013-03-11 02:26:00,
2013-03-10 19:30:00,55.3,41.2,30.25,West,270,0.0,3.0,59,0.00,,,0.00,WeatherCatV1.15B25,2013-03-11 02:30:00,
2013-03-10 19:31:00,52.4,41.4,30.25,West,278,0.0,0.0,66,0.00,,,0.00,LWC V2.11 B50,2013-03-11 02:31:00,
2013-03-10 19:35:00,55.3,41.2,30.25,West,270,0.0,3.0,59,0.00,,,0.00,WeatherCatV1.15B25,2013-03-11 02:35:00,
2013-03-10 19:36:00,52.2,41.6,30.25,West,278,0.0,0.0,67,0.00,,,0.00,LWC V2.11 B50,2013-03-11 02:36:00,
2013-03-10 19:40:00,55.3,41.2,30.25,West,270,0.0,3.0,59,0.00,,,0.00,WeatherCatV1.15B25,2013-03-11 02:40:00,
2013-03-10 19:41:00,51.9,41.3,30.25,West,278,0.0,0.0,67,0.00,,,0.00,LWC V2.11 B50,2013-03-11 02:41:00,
2013-03-10 19:45:00,55.3,41.2,30.25,West,270,0.0,3.0,59,0.00,,,0.00,WeatherCatV1.15B25,2013-03-11 02:45:00,
2013-03-10 19:46:00,51.5,41.3,30.25,West,278,0.0,0.0,68,0.00,,,0.00,LWC V2.11 B50,2013-03-11 02:46:00,
2013-03-10 19:50:00,55.3,41.2,30.25,West,270,0.0,3.0,59,0.00,,,0.00,WeatherCatV1.15B25,2013-03-11 02:50:00,
2013-03-10 19:51:00,51.2,41.4,30.25,West,278,0.0,0.0,69,0.00,,,0.00,LWC V2.11 B50,2013-03-11 02:51:00,
2013-03-10 19:55:00,55.3,41.2,30.25,West,270,0.0,3.0,59,0.00,,,0.00,WeatherCatV1.15B25,2013-03-11 02:55:00,
2013-03-10 19:56:00,51.0,41.2,30.25,West,278,0.0,0.0,69,0.00,,,0.00,LWC V2.11 B50,2013-03-11 02:56:00,
2013-03-10 20:00:00,50.9,41.1,30.25,West,270,0.0,0.0,69,0.00,,,0.00,WeatherCatV1.15B25,2013-03-11 03:00:00,
2013-03-10 20:01:00,50.8,41.4,30.25,West,278,0.0,0.0,70,0.00,,,0.00,LWC V2.11 B50,2013-03-11 03:01:00,
2013-03-10 20:05:00,50.9,41.1,30.25,West,270,0.0,0.0,69,0.00,,,0.00,WeatherCatV1.15B25,2013-03-11 03:05:00,
2013-03-10 20:06:00,50.1,41.4,30.25,West,278,0.0,0.0,72,0.00,,,0.00,LWC V2.11 B50,2013-03-11 03:06:00,
2013-03-10 20:10:00,50.9,41.1,30.25,West,270,0.0,0.0,69,0.00,,,0.00,WeatherCatV1.15B25,2013-03-11 03:10:00,
2013-03-10 20:11:00,49.6,41.3,30.25,West,278,0.0,0.0,73,0.00,,,0.00,LWC V2.11 B50,2013-03-11 03:11:00,
2013-03-10 20:15:00,50.9,41.1,30.25,West,270,0.0,0.0,69,0.00,,,0.00,WeatherCatV1.15B25,2013-03-11 03:15:00,
2013-03-10 20:16:00,49.2,41.3,30.25,West,278,0.0,0.0,74,0.00,,,0.00,LWC V2.11 B50,2013-03-11 03:16:00,
2013-03-10 20:20:00,50.9,41.1,30.25,West,270,0.0,0.0,69,0.00,,,0.00,WeatherCatV1.15B25,2013-03-11 03:20:00,
2013-03-10 20:21:00,49.0,41.4,30.25,West,278,0.0,0.0,75,0.00,,,0.00,LWC V2.11 B50,2013-03-11 03:21:00,
2013-03-10 20:25:00,50.9,41.1,30.25,West,270,0.0,0.0,69,0.00,,,0.00,WeatherCatV1.15B25,2013-03-11 03:25:00,
2013-03-10 20:26:00,48.3,41.4,30.25,West,278,0.0,0.0,77,0.00,,,0.00,LWC V2.11 B50,2013-03-11 03:26:00,
2013-03-10 20:30:00,50.9,41.1,30.25,West,270,0.0,0.0,69,0.00,,,0.00,WeatherCatV1.15B25,2013-03-11 03:30:00,
2013-03-10 20:31:00,48.0,41.1,30.25,West,278,0.0,0.0,77,0.00,,,0.00,LWC V2.11 B50,2013-03-11 03:31:00,
2013-03-10 20:35:00,50.9,41.1,30.25,West,270,0.0,0.0,69,0.00,,,0.00,WeatherCatV1.15B25,2013-03-11 03:35:00,
2013-03-10 20:36:00,48.0,41.5,30.25,West,278,0.0,0.0,78,0.00,,,0.00,LWC V2.11 B50,2013-03-11 03:36:00,
2013-03-10 20:40:00,50.9,41.1,30.25,West,270,0.0,0.0,69,0.00,,,0.00,WeatherCatV1.15B25,2013-03-11 03:40:00,
2013-03-10 20:41:00,47.8,41.3,30.25,West,278,0.0,0.0,78,0.00,,,0.00,LWC V2.11 B50,2013-03-11 03:41:00,
2013-03-10 20:45:00,50.9,41.1,30.25,West,270,0.0,0.0,69,0.00,,,0.00,WeatherCatV1.15B25,2013-03-11 03:45:00,
2013-03-10 20:46:00,47.7,41.2,30.25,West,278,0.0,0.0,78,0.00,,,0.00,LWC V2.11 B50,2013-03-11 03:46:00,
2013-03-10 20:50:00,50.9,41.1,30.25,West,270,0.0,0.0,69,0.00,,,0.00,WeatherCatV1.15B25,2013-03-11 03:50:00,
2013-03-10 20:51:00,47.8,40.9,30.25,West,278,0.0,0.0,77,0.00,,,0.00,LWC V2.11 B50,2013-03-11 03:51:00,
2013-03-10 20:55:00,50.9,41.1,30.25,West,270,0.0,0.0,69,0.00,,,0.00,WeatherCatV1.15B25,2013-03-11 03:55:00,
2013-03-10 20:56:00,47.7,40.8,30.25,West,278,0.0,0.0,77,0.00,,,0.00,LWC V2.11 B50,2013-03-11 03:56:00,
2013-03-10 21:00:00,47.2,40.7,30.25,West,278,0.0,0.0,78,0.00,,,0.00,LWC V2.11 B50,2013-03-11 04:00:00,
2013-03-10 21:05:00,46.6,40.4,30.25,West,278,0.0,0.0,79,0.00,,,0.00,LWC V2.11 B50,2013-03-11 04:05:00,
2013-03-10 21:10:00,46.5,40.7,30.25,West,278,0.0,0.0,80,0.00,,,0.00,LWC V2.11 B50,2013-03-11 04:10:00,
2013-03-10 21:11:00,46.5,40.7,30.25,West,278,0.0,0.0,80,0.00,,,0.00,LWC V2.11 B50,2013-03-11 04:11:00,
2013-03-10 21:15:00,47.2,40.7,30.25,West,270,0.0,0.0,78,0.00,,,0.00,WeatherCatV1.15B25,2013-03-11 04:15:00,
2013-03-10 21:16:00,46.5,40.7,30.25,West,278,0.0,0.0,80,0.00,,,0.00,LWC V2.11 B50,2013-03-11 04:16:00,
2013-03-10 21:20:00,47.2,40.7,30.25,West,270,0.0,0.0,78,0.00,,,0.00,WeatherCatV1.15B25,2013-03-11 04:20:00,
2013-03-10 21:21:00,46.4,40.6,30.25,West,280,0.0,0.0,80,0.00,,,0.00,LWC V2.11 B50,2013-03-11 04:21:00,
2013-03-10 21:25:00,47.2,40.7,30.25,West,270,0.0,0.0,78,0.00,,,0.00,WeatherCatV1.15B25,2013-03-11 04:25:00,
2013-03-10 21:26:00,46.4,40.6,30.25,West,280,0.0,0.0,80,0.00,,,0.00,LWC V2.11 B50,2013-03-11 04:26:00,
2013-03-10 21:30:00,47.2,40.7,30.25,West,270,0.0,0.0,78,0.00,,,0.00,WeatherCatV1.15B25,2013-03-11 04:30:00,
2013-03-10 21:31:00,46.1,40.3,30.25,West,280,0.0,0.0,80,0.00,,,0.00,LWC V2.11 B50,2013-03-11 04:31:00,
2013-03-10 21:35:00,47.2,40.7,30.25,West,270,0.0,0.0,78,0.00,,,0.00,WeatherCatV1.15B25,2013-03-11 04:35:00,
2013-03-10 21:36:00,45.6,40.1,30.25,West,280,0.0,0.0,81,0.00,,,0.00,LWC V2.11 B50,2013-03-11 04:36:00,
2013-03-10 21:40:00,47.2,40.7,30.25,West,270,0.0,0.0,78,0.00,,,0.00,WeatherCatV1.15B25,2013-03-11 04:40:00,
2013-03-10 21:41:00,45.4,40.2,30.25,West,280,0.0,0.0,82,0.00,,,0.00,LWC V2.11 B50,2013-03-11 04:41:00,
2013-03-10 21:45:00,47.2,40.7,30.25,West,270,0.0,0.0,78,0.00,,,0.00,WeatherCatV1.15B25,2013-03-11 04:45:00,
2013-03-10 21:46:00,45.3,40.1,30.25,West,280,0.0,0.0,82,0.00,,,0.00,LWC V2.11 B50,2013-03-11 04:46:00,
2013-03-10 21:50:00,47.2,40.7,30.25,West,270,0.0,0.0,78,0.00,,,0.00,WeatherCatV1.15B25,2013-03-11 04:50:00,
2013-03-10 21:51:00,45.1,39.9,30.26,West,280,0.0,0.0,82,0.00,,,0.00,LWC V2.11 B50,2013-03-11 04:51:00,
2013-03-10 21:55:00,47.2,40.7,30.25,West,270,0.0,0.0,78,0.00,,,0.00,WeatherCatV1.15B25,2013-03-11 04:55:00,
2013-03-10 21:56:00,45.1,39.9,30.26,West,280,0.0,0.0,82,0.00,,,0.00,LWC V2.11 B50,2013-03-11 04:56:00,
2013-03-10 22:00:00,45.1,40.2,30.26,West,270,0.0,0.0,83,0.00,,,0.00,WeatherCatV1.15B25,2013-03-11 05:00:00,
2013-03-10 22:01:00,45.1,40.2,30.26,West,280,0.0,0.0,83,0.00,,,0.00,LWC V2.11 B50,2013-03-11 05:01:00,
2013-03-10 22:05:00,45.1,40.2,30.26,West,270,0.0,0.0,83,0.00,,,0.00,WeatherCatV1.15B25,2013-03-11 05:05:00,
2013-03-10 22:06:00,45.1,39.9,30.26,NW,315,0.0,0.0,82,0.00,,,0.00,LWC V2.11 B50,2013-03-11 05:06:00,
2013-03-10 22:10:00,45.1,40.2,30.26,West,270,0.0,0.0,83,0.00,,,0.00,WeatherCatV1.15B25,2013-03-11 05:10:00,
2013-03-10 22:11:00,44.9,39.4,30.26,NW,314,0.0,0.0,81,0.00,,,0.00,LWC V2.11 B50,2013-03-11 05:11:00,
2013-03-10 22:15:00,45.1,40.2,30.26,West,270,0.0,0.0,83,0.00,,,0.00,WeatherCatV1.15B25,2013-03-11 05:15:00,
2013-03-10 22:16:00,44.5,39.7,30.26,NW,314,0.0,0.0,83,0.00,,,0.00,LWC V2.11 B50,2013-03-11 05:16:00,
2013-03-10 22:20:00,45.1,40.2,30.26,West,270,0.0,0.0,83,0.00,,,0.00,LWC V2.11 B50,2013-03-11 05:20:00,
2013-03-10 22:25:00,45.1,40.2,30.26,West,270,0.0,0.0,83,0.00,,,0.00,WeatherCatV1.15B25,2013-03-11 05:25:00,
2013-03-10 22:30:00,45.1,40.2,30.26,West,270,0.0,0.0,83,0.00,,,0.00,LWC V2.11 B50,2013-03-11 05:30:00,
2013-03-10 22:35:00,45.1,40.2,30.26,West,270,0.0,0.0,83,0.00,,,0.00,WeatherCatV1.15B25,2013-03-11 05:35:00,
2013-03-10 22:40:00,45.1,40.2,30.26,West,270,0.0,0.0,83,0.00,,,0.00,LWC V2.11 B50,2013-03-11 05:40:00,
2013-03-10 22:45:00,45.1,40.2,30.26,West,270,0.0,0.0,83,0.00,,,0.00,WeatherCatV1.15B25,2013-03-11 05:45:00,
2013-03-10 22:50:00,45.1,40.2,30.26,West,270,0.0,0.0,83,0.00,,,0.00,LWC V2.11 B50,2013-03-11 05:50:00,
2013-03-10 22:55:00,45.1,40.2,30.26,West,270,0.0,0.0,83,0.00,,,0.00,WeatherCatV1.15B25,2013-03-11 05:55:00,
2013-03-10 23:00:00,45.1,40.2,30.26,West,270,0.0,0.0,83,0.00,,,0.00,LWC V2.11 B50,2013-03-11 06:00:00,
2013-03-10 23:05:00,44.4,39.3,30.26,West,270,0.0,0.0,82,0.00,,,0.00,WeatherCatV1.15B25,2013-03-11 06:05:00,
2013-03-10 23:10:00,44.4,39.3,30.26,West,270,0.0,0.0,82,0.00,,,0.00,LWC V2.11 B50,2013-03-11 06:10:00,
2013-03-10 23:15:00,44.4,39.3,30.26,West,270,0.0,0.0,82,0.00,,,0.00,WeatherCatV1.15B25,2013-03-11 06:15:00,
2013-03-10 23:20:00,44.4,39.3,30.26,West,270,0.0,0.0,82,0.00,,,0.00,LWC V2.11 B50,2013-03-11 06:20:00,
2013-03-10 23:25:00,44.4,39.3,30.26,West,270,0.0,0.0,82,0.00,,,0.00,WeatherCatV1.15B25,2013-03-11 06:25:00,
2013-03-10 23:30:00,44.4,39.3,30.26,West,270,0.0,0.0,82,0.00,,,0.00,LWC V2.11 B50,2013-03-11 06:30:00,
2013-03-10 23:35:00,44.4,39.3,30.26,West,270,0.0,0.0,82,0.00,,,0.00,WeatherCatV1.15B25,2013-03-11 06:35:00,
2013-03-10 23:40:00,44.4,39.3,30.26,West,270,0.0,0.0,82,0.00,,,0.00,LWC V2.11 B50,2013-03-11 06:40:00,
2013-03-10 23:45:00,44.4,39.3,30.26,West,270,0.0,0.0,82,0.00,,,0.00,WeatherCatV1.15B25,2013-03-11 06:45:00,
2013-03-10 23:50:00,44.4,39.3,30.26,West,270,0.0,0.0,82,0.00,,,0.00,LWC V2.11 B50,2013-03-11 06:50:00,
2013-03-10 23:55:00,44.4,39.3,30.26,West,270,0.0,0.0,82,0.00,,,0.00,WeatherCatV1.15B25,2013-03-11 06:55:00,